Davis Park, New York
Current Conditions -  °F | °C
As of 12:56 AM on Saturday 01 Nov 2014 (Local Time) from KISP Reporting Station
Overcast Overcast  
Wind Chill: 43°   Ceiling: 3000
Heat Index: 49°   Visibility: 10mi
Dew Point: 44°   Wind: 15mph
Humidity: 83%   Direction: 40°NE
Pressure: 29.83"   Gusts: NA
Location:  40.7718°N, 72.9949°W
Report Text: KISP 010456Z AUTO 04013KT 10SM OVC030 09/07 A2983 RMK AO2 RAB32E44 SLP099 P0000 T00940067 401390067
Loading
Personal Weather Stations






























Interactive Weather Map
Tropical Storm Tracking
New forecast layout! Learn more

10-Day Weather Forecast

Advertisements
Track Severe Weather on mobile